createdAt,value
2016-12-08T00:00:53.262Z,1018.23
2016-12-08T00:02:03.632Z,1018.26
2016-12-08T00:03:13.976Z,1018.24
2016-12-08T00:04:23.670Z,1018.24
2016-12-08T00:05:34.032Z,1018.2
2016-12-08T00:06:43.725Z,1018.17
2016-12-08T00:07:53.755Z,1018.15
2016-12-08T00:09:04.104Z,1018.12
2016-12-08T00:10:14.443Z,1018.11
2016-12-08T00:11:23.880Z,1018.09
2016-12-08T00:12:34.239Z,1018.08
2016-12-08T00:13:43.957Z,1018.1
2016-12-08T00:14:54.294Z,1018.06
2016-12-08T00:16:04.634Z,1018.09
2016-12-08T00:17:14.963Z,1018.06
2016-12-08T00:18:24.985Z,1018.03
2016-12-08T00:19:34.693Z,1018.06
2016-12-08T00:20:45.010Z,1018.03
2016-12-08T00:21:54.701Z,1017.99
2016-12-08T00:23:05.029Z,1018.02
2016-12-08T00:24:14.729Z,1018.09
2016-12-08T00:25:24.450Z,1018.14
2016-12-08T00:26:34.156Z,1018.09
2016-12-08T00:27:43.850Z,1018.05
2016-12-08T00:28:54.171Z,1017.95
2016-12-08T00:30:04.182Z,1017.91
2016-12-08T00:31:14.521Z,1017.88
2016-12-08T00:32:24.876Z,1017.87
2016-12-08T00:33:34.892Z,1017.89
2016-12-08T00:34:44.601Z,1017.93
2016-12-08T00:35:54.956Z,1017.99
2016-12-08T00:37:05.284Z,1017.99
2016-12-08T00:38:15.618Z,1018.06
2016-12-08T00:39:25.961Z,1018.07
2016-12-08T00:40:36.306Z,1018.06
2016-12-08T00:41:46.321Z,1018.04
2016-12-08T00:42:56.340Z,1018.04
2016-12-08T00:44:06.362Z,1017.98
2016-12-08T00:45:16.369Z,1017.91
2016-12-08T00:46:26.392Z,1017.92
2016-12-08T00:47:36.728Z,1017.92
2016-12-08T00:48:46.769Z,1017.88
2016-12-08T00:49:56.790Z,1017.88
2016-12-08T00:51:07.128Z,1017.87
2016-12-08T00:52:16.858Z,1017.83
2016-12-08T00:53:26.877Z,1017.83
2016-12-08T00:54:36.900Z,1017.93
2016-12-08T00:55:46.284Z,1018
2016-12-08T00:56:56.331Z,1018.04
2016-12-08T00:58:05.704Z,1018.07
2016-12-08T00:59:16.026Z,1018.04
2016-12-08T01:00:26.047Z,1018.02
2016-12-08T01:01:36.060Z,1017.99
2016-12-08T01:02:46.381Z,1017.95
2016-12-08T01:03:56.377Z,1017.9
2016-12-08T01:05:05.763Z,1017.91
2016-12-08T01:06:15.815Z,1017.94
2016-12-08T01:07:26.147Z,1017.98
2016-12-08T01:08:36.480Z,1018.02
2016-12-08T01:09:46.510Z,1018.03
2016-12-08T01:10:56.522Z,1018.05
2016-12-08T01:12:06.231Z,1018.06
2016-12-08T01:13:16.284Z,1018.04
2016-12-08T01:14:26.308Z,1018.06
2016-12-08T01:15:36.630Z,1018.07
2016-12-08T01:16:46.971Z,1018.12
2016-12-08T01:17:57.306Z,1018.12
2016-12-08T01:19:07.693Z,1018.13
2016-12-08T01:20:17.713Z,1018.12
2016-12-08T01:21:27.719Z,1018.17
2016-12-08T01:22:38.046Z,1018.13
2016-12-08T01:23:48.381Z,1018.11
2016-12-08T01:24:58.388Z,1018.11
2016-12-08T01:26:08.100Z,1018.12
2016-12-08T01:27:18.117Z,1018.07
2016-12-08T01:28:28.458Z,1018.05
2016-12-08T01:29:38.819Z,1018.01
2016-12-08T01:30:49.138Z,1018.03
2016-12-08T01:31:59.149Z,1018
2016-12-08T01:33:09.185Z,1017.99
2016-12-08T01:34:19.512Z,1017.91
2016-12-08T01:35:29.837Z,1017.9
2016-12-08T01:36:40.158Z,1017.89
2016-12-08T01:37:50.172Z,1017.84
2016-12-08T01:39:00.189Z,1017.83
2016-12-08T01:40:10.198Z,1017.87
2016-12-08T01:41:20.513Z,1017.89
2016-12-08T01:42:30.539Z,1017.87
2016-12-08T01:43:40.556Z,1017.9
2016-12-08T01:44:50.889Z,1017.93
2016-12-08T01:46:00.914Z,1017.89
2016-12-08T01:47:10.620Z,1017.83
2016-12-08T01:48:20.942Z,1017.82
2016-12-08T01:49:30.978Z,1017.86
2016-12-08T01:50:41.333Z,1017.86
2016-12-08T01:51:51.347Z,1017.86
2016-12-08T01:53:01.411Z,1017.87
2016-12-08T01:54:11.737Z,1017.8
2016-12-08T01:55:22.087Z,1017.77
2016-12-08T01:56:32.110Z,1017.7
2016-12-08T01:57:42.140Z,1017.73
2016-12-08T01:58:51.843Z,1017.69
2016-12-08T02:00:02.203Z,1017.68
2016-12-08T02:01:12.531Z,1017.72
2016-12-08T02:02:22.846Z,1017.71
2016-12-08T02:03:32.545Z,1017.68
2016-12-08T02:04:42.565Z,1017.66
2016-12-08T02:05:52.587Z,1017.57
2016-12-08T02:07:02.584Z,1017.56
2016-12-08T02:08:12.916Z,1017.6
2016-12-08T02:09:23.261Z,1017.66
2016-12-08T02:10:33.268Z,1017.7
2016-12-08T02:11:43.598Z,1017.73
2016-12-08T02:12:53.921Z,1017.76
2016-12-08T02:14:04.238Z,1017.72
2016-12-08T02:15:14.283Z,1017.7
2016-12-08T02:16:24.604Z,1017.68
2016-12-08T02:17:34.346Z,1017.74
2016-12-08T02:18:44.665Z,1017.76
2016-12-08T02:19:54.685Z,1017.78
2016-12-08T02:21:04.747Z,1017.8
2016-12-08T02:22:14.438Z,1017.76
2016-12-08T02:23:24.465Z,1017.79
2016-12-08T02:24:34.497Z,1017.8
2016-12-08T02:25:44.823Z,1017.85
2016-12-08T02:26:54.848Z,1017.92
2016-12-08T02:28:04.872Z,1017.92
2016-12-08T02:29:14.878Z,1017.95
2016-12-08T02:30:24.905Z,1017.9
2016-12-08T02:31:34.306Z,1017.83
2016-12-08T02:32:44.627Z,1017.84
2016-12-08T02:33:54.678Z,1017.82
2016-12-08T02:35:04.703Z,1017.8
2016-12-08T02:36:14.413Z,1017.82
2016-12-08T02:37:24.110Z,1017.83
2016-12-08T02:38:33.799Z,1017.77
2016-12-08T02:39:44.128Z,1017.85
2016-12-08T02:40:53.829Z,1017.81
2016-12-08T02:42:03.859Z,1017.81
2016-12-08T02:43:14.180Z,1017.81
2016-12-08T02:44:24.506Z,1017.87
2016-12-08T02:45:34.823Z,1017.87
2016-12-08T02:46:44.838Z,1017.88
2016-12-08T02:47:54.543Z,1017.86
2016-12-08T02:49:04.862Z,1017.88
2016-12-08T02:50:15.193Z,1017.81
2016-12-08T02:51:25.207Z,1017.8
2016-12-08T02:52:35.216Z,1017.76
2016-12-08T02:53:45.263Z,1017.75
2016-12-08T02:54:55.603Z,1017.79
2016-12-08T02:56:05.942Z,1017.72
2016-12-08T02:57:16.277Z,1017.74
2016-12-08T02:58:25.985Z,1017.77
2016-12-08T02:59:36.312Z,1017.71
2016-12-08T03:00:46.325Z,1017.68
2016-12-08T03:32:50.855Z,1017.63
2016-12-08T03:34:00.861Z,1017.59
2016-12-08T03:35:11.169Z,1017.61
2016-12-08T03:36:20.865Z,1017.61
2016-12-08T03:37:31.187Z,1017.62
2016-12-08T03:38:41.128Z,1017.65
2016-12-08T03:39:51.485Z,1017.66
2016-12-08T03:41:01.177Z,1017.72
2016-12-08T03:42:10.887Z,1017.71
2016-12-08T03:43:20.891Z,1017.74
2016-12-08T03:44:30.900Z,1017.7
2016-12-08T03:45:40.904Z,1017.75
2016-12-08T03:46:50.976Z,1017.72
2016-12-08T03:48:00.680Z,1017.72
2016-12-08T03:49:10.379Z,1017.7
2016-12-08T03:50:20.397Z,1017.73
2016-12-08T03:51:30.405Z,1017.7
2016-12-08T03:52:40.406Z,1017.71
2016-12-08T03:53:50.447Z,1017.69
2016-12-08T03:55:00.815Z,1017.72
2016-12-08T03:56:10.511Z,1017.66
2016-12-08T03:57:20.828Z,1017.67
2016-12-08T03:58:30.850Z,1017.66
2016-12-08T03:59:41.185Z,1017.71
2016-12-08T04:00:51.198Z,1017.69
2016-12-08T04:02:01.214Z,1017.65
2016-12-08T04:03:11.226Z,1017.61
2016-12-08T04:04:21.559Z,1017.58
2016-12-08T04:05:31.605Z,1017.52
2016-12-08T04:06:41.313Z,1017.48
2016-12-08T04:07:51.027Z,1017.5
2016-12-08T04:09:01.351Z,1017.5
2016-12-08T04:10:11.352Z,1017.56
2016-12-08T04:11:20.765Z,1017.51
2016-12-08T04:12:30.766Z,1017.53
2016-12-08T04:13:40.767Z,1017.54
2016-12-08T04:14:50.773Z,1017.56
2016-12-08T04:16:00.475Z,1017.59
2016-12-08T04:17:10.809Z,1017.59
2016-12-08T04:18:20.809Z,1017.62
2016-12-08T04:19:31.140Z,1017.63
2016-12-08T04:20:41.487Z,1017.65
2016-12-08T04:21:51.813Z,1017.66
2016-12-08T04:23:01.821Z,1017.63
2016-12-08T04:24:11.833Z,1017.59
2016-12-08T04:25:21.540Z,1017.59
2016-12-08T04:26:31.566Z,1017.55
2016-12-08T04:27:41.887Z,1017.57
2016-12-08T04:28:52.214Z,1017.55
2016-12-08T04:30:02.529Z,1017.54
2016-12-08T04:31:11.933Z,1017.56
2016-12-08T04:32:22.257Z,1017.55
2016-12-08T04:33:32.272Z,1017.51
2016-12-08T04:34:42.604Z,1017.55
2016-12-08T04:35:52.925Z,1017.54
2016-12-08T04:37:02.937Z,1017.58
2016-12-08T04:38:12.975Z,1017.59
2016-12-08T04:39:23.020Z,1017.65
2016-12-08T04:40:33.017Z,1017.64
2016-12-08T04:41:43.037Z,1017.65
2016-12-08T04:42:53.062Z,1017.65
2016-12-08T04:44:03.382Z,1017.64
2016-12-08T04:45:13.390Z,1017.68
2016-12-08T04:46:23.404Z,1017.65
2016-12-08T04:47:33.424Z,1017.64
2016-12-08T04:48:43.433Z,1017.66
2016-12-08T04:49:53.450Z,1017.64
2016-12-08T04:51:03.459Z,1017.66
2016-12-08T04:52:13.794Z,1017.68
2016-12-08T04:53:23.790Z,1017.72
2016-12-08T04:54:33.808Z,1017.71
2016-12-08T04:55:43.818Z,1017.71
2016-12-08T04:56:53.828Z,1017.69
2016-12-08T04:58:03.542Z,1017.71
2016-12-08T04:59:13.244Z,1017.7
2016-12-08T05:00:22.952Z,1017.72
2016-12-08T05:01:33.268Z,1017.75
2016-12-08T05:02:43.278Z,1017.71
2016-12-08T05:03:53.606Z,1017.67
2016-12-08T05:05:03.611Z,1017.63
2016-12-08T05:06:13.311Z,1017.63
2016-12-08T05:07:22.712Z,1017.65
2016-12-08T05:08:33.063Z,1017.57
2016-12-08T05:09:43.407Z,1017.61
2016-12-08T05:10:53.419Z,1017.58
2016-12-08T05:12:03.742Z,1017.59
2016-12-08T05:13:14.070Z,1017.52
2016-12-08T05:14:24.076Z,1017.56
2016-12-08T05:15:34.408Z,1017.55
2016-12-08T05:16:44.115Z,1017.54
2016-12-08T05:17:54.117Z,1017.57
2016-12-08T05:19:04.441Z,1017.53
2016-12-08T05:20:14.441Z,1017.48
2016-12-08T05:21:24.454Z,1017.47
2016-12-08T05:22:34.774Z,1017.42
2016-12-08T05:23:45.096Z,1017.45
2016-12-08T05:24:54.800Z,1017.47
2016-12-08T05:26:05.121Z,1017.46
2016-12-08T05:27:14.802Z,1017.44
2016-12-08T05:28:24.504Z,1017.4
2016-12-08T05:29:34.506Z,1017.34
2016-12-08T05:30:44.526Z,1017.3
2016-12-08T05:31:54.858Z,1017.33
2016-12-08T05:33:04.875Z,1017.33
2016-12-08T05:34:14.874Z,1017.34
2016-12-08T05:35:24.889Z,1017.36
2016-12-08T05:36:34.605Z,1017.42
2016-12-08T05:37:44.922Z,1017.39
2016-12-08T05:38:55.249Z,1017.4
2016-12-08T05:40:05.578Z,1017.45
2016-12-08T05:41:15.893Z,1017.49
2016-12-08T05:42:26.219Z,1017.49
2016-12-08T05:43:36.549Z,1017.56
2016-12-08T05:44:46.571Z,1017.55
2016-12-08T05:45:56.892Z,1017.55
2016-12-08T05:47:06.897Z,1017.57
2016-12-08T05:48:16.623Z,1017.56
2016-12-08T05:49:26.957Z,1017.48
2016-12-08T05:50:36.979Z,1017.43
2016-12-08T05:51:46.984Z,1017.34
2016-12-08T05:52:57.311Z,1017.34
2016-12-08T05:54:07.328Z,1017.34
2016-12-08T05:55:17.345Z,1017.36
2016-12-08T05:56:27.056Z,1017.39
2016-12-08T05:57:37.406Z,1017.38
2016-12-08T05:58:47.420Z,1017.38
2016-12-08T05:59:57.782Z,1017.38
2016-12-08T06:01:08.164Z,1017.36
2016-12-08T06:02:18.180Z,1017.42
2016-12-08T06:03:28.511Z,1017.4
2016-12-08T06:04:38.555Z,1017.38
2016-12-08T06:05:48.575Z,1017.39
2016-12-08T06:06:58.893Z,1017.42
2016-12-08T06:08:08.915Z,1017.39
2016-12-08T06:09:19.250Z,1017.41
2016-12-08T06:10:29.588Z,1017.44
2016-12-08T06:11:39.914Z,1017.48
2016-12-08T06:12:49.652Z,1017.47
2016-12-08T06:13:59.666Z,1017.51
2016-12-08T06:15:09.984Z,1017.47
2016-12-08T06:16:19.688Z,1017.47
2016-12-08T06:17:30.123Z,1017.54
2016-12-08T06:18:39.831Z,1017.5
2016-12-08T06:19:50.161Z,1017.52
2016-12-08T06:20:59.848Z,1017.54
2016-12-08T06:22:09.850Z,1017.54
2016-12-08T06:23:19.239Z,1017.52
2016-12-08T06:24:29.568Z,1017.54
2016-12-08T06:25:39.584Z,1017.48
2016-12-08T06:26:49.907Z,1017.48
2016-12-08T06:28:00.218Z,1017.5
2016-12-08T06:29:10.546Z,1017.57
2016-12-08T06:30:20.882Z,1017.5
2016-12-08T06:31:31.224Z,1017.54
2016-12-08T06:32:41.262Z,1017.53
2016-12-08T06:33:51.593Z,1017.55
2016-12-08T06:35:01.919Z,1017.59
2016-12-08T06:36:12.237Z,1017.69
2016-12-08T06:37:22.560Z,1017.73
2016-12-08T06:38:32.588Z,1017.79
2016-12-08T06:39:42.302Z,1017.73
2016-12-08T06:40:52.637Z,1017.71
2016-12-08T06:42:02.962Z,1017.69
2016-12-08T06:43:12.978Z,1017.68
2016-12-08T06:44:23.289Z,1017.7
2016-12-08T06:45:33.611Z,1017.66
2016-12-08T06:46:43.623Z,1017.64
2016-12-08T06:47:53.633Z,1017.64
2016-12-08T06:49:03.673Z,1017.61
2016-12-08T06:50:13.688Z,1017.66
2016-12-08T06:51:23.697Z,1017.69
2016-12-08T06:52:34.027Z,1017.78
2016-12-08T06:53:44.352Z,1017.78
2016-12-08T06:54:54.698Z,1017.73
2016-12-08T06:56:05.022Z,1017.66
2016-12-08T06:57:15.352Z,1017.58
2016-12-08T06:58:25.058Z,1017.6
2016-12-08T06:59:35.094Z,1017.59
2016-12-08T07:00:45.419Z,1017.54
2016-12-08T07:01:55.736Z,1017.53
2016-12-08T07:03:06.059Z,1017.52
2016-12-08T07:04:16.076Z,1017.46
2016-12-08T07:05:26.458Z,1017.46
2016-12-08T07:06:36.771Z,1017.46
2016-12-08T07:07:46.781Z,1017.44
2016-12-08T07:08:56.793Z,1017.47
2016-12-08T07:10:07.144Z,1017.49
2016-12-08T07:11:17.497Z,1017.48
2016-12-08T07:12:27.530Z,1017.45
2016-12-08T07:13:37.871Z,1017.44
2016-12-08T07:14:48.207Z,1017.43
2016-12-08T07:15:58.218Z,1017.45
2016-12-08T07:17:08.560Z,1017.52
2016-12-08T07:18:18.591Z,1017.57
2016-12-08T07:19:28.908Z,1017.63
2016-12-08T07:20:39.223Z,1017.57
2016-12-08T07:21:49.546Z,1017.6
2016-12-08T07:22:59.582Z,1017.59
2016-12-08T07:24:09.580Z,1017.56
2016-12-08T07:25:19.277Z,1017.52
2016-12-08T07:26:29.624Z,1017.52
2016-12-08T07:27:39.945Z,1017.5
2016-12-08T07:28:49.947Z,1017.49
2016-12-08T07:30:00.277Z,1017.57
2016-12-08T07:31:10.320Z,1017.55
2016-12-08T07:32:20.648Z,1017.57
2016-12-08T07:33:30.658Z,1017.61
2016-12-08T07:34:40.682Z,1017.59
2016-12-08T07:35:51.015Z,1017.59
2016-12-08T07:37:01.339Z,1017.64
2016-12-08T07:38:11.673Z,1017.56
2016-12-08T07:39:22.001Z,1017.55
2016-12-08T07:40:31.704Z,1017.55
2016-12-08T07:41:42.070Z,1017.56
2016-12-08T07:42:52.418Z,1017.57
2016-12-08T07:44:02.768Z,1017.65
2016-12-08T07:45:13.086Z,1017.63
2016-12-08T07:46:22.801Z,1017.68
2016-12-08T07:47:33.127Z,1017.67
2016-12-08T07:48:42.838Z,1017.7
2016-12-08T07:49:52.850Z,1017.71
2016-12-08T07:51:02.862Z,1017.66
2016-12-08T07:52:12.879Z,1017.62
2016-12-08T07:53:23.206Z,1017.64
2016-12-08T07:54:33.560Z,1017.54
2016-12-08T07:55:43.561Z,1017.52
2016-12-08T07:56:53.260Z,1017.54
2016-12-08T07:58:02.963Z,1017.52
2016-12-08T07:59:13.286Z,1017.57
2016-12-08T08:00:23.648Z,1017.6
2016-12-08T08:01:34.001Z,1017.66
2016-12-08T08:02:43.712Z,1017.65
2016-12-08T08:03:54.042Z,1017.63
2016-12-08T08:05:04.070Z,1017.59
2016-12-08T08:06:14.102Z,1017.53
2016-12-08T08:07:24.131Z,1017.58
2016-12-08T08:08:34.463Z,1017.57
2016-12-08T08:09:44.799Z,1017.63
2016-12-08T08:10:55.137Z,1017.67
2016-12-08T08:12:05.488Z,1017.67
2016-12-08T08:13:15.511Z,1017.6
2016-12-08T08:14:25.831Z,1017.44
2016-12-08T08:15:36.159Z,1017.4
2016-12-08T08:16:46.491Z,1017.41
2016-12-08T08:17:56.517Z,1017.41
2016-12-08T08:19:06.839Z,1017.43
2016-12-08T08:20:16.872Z,1017.45
2016-12-08T08:21:26.908Z,1017.42
2016-12-08T08:22:36.618Z,1017.46
2016-12-08T08:23:46.635Z,1017.45
2016-12-08T08:24:56.662Z,1017.51
2016-12-08T08:26:06.981Z,1017.51
2016-12-08T08:27:16.997Z,1017.52
2016-12-08T08:28:27.318Z,1017.4
2016-12-08T08:29:37.635Z,1017.34
2016-12-08T08:30:47.645Z,1017.24
2016-12-08T08:31:57.992Z,1017.22
2016-12-08T08:33:08.034Z,1017.16
2016-12-08T08:34:17.455Z,1017.15
2016-12-08T08:35:27.470Z,1017.1
2016-12-08T08:36:37.793Z,1017.06
2016-12-08T08:37:48.130Z,1017.05
2016-12-08T08:38:58.458Z,1017.04
2016-12-08T08:40:08.471Z,1017.06
2016-12-08T08:41:18.801Z,1017.04
2016-12-08T08:42:28.506Z,1017.06
2016-12-08T08:43:38.554Z,1017.13
2016-12-08T08:44:48.246Z,1017.24
2016-12-08T08:45:58.264Z,1017.27
2016-12-08T08:47:08.315Z,1017.29
2016-12-08T08:48:18.648Z,1017.35
2016-12-08T08:49:28.667Z,1017.38
2016-12-08T08:50:38.702Z,1017.39
2016-12-08T08:51:48.390Z,1017.42
2016-12-08T08:52:58.718Z,1017.36
2016-12-08T08:54:09.043Z,1017.33
2016-12-08T08:55:19.065Z,1017.28
2016-12-08T08:56:28.776Z,1017.34
2016-12-08T08:57:39.113Z,1017.28
2016-12-08T08:58:48.830Z,1017.22
2016-12-08T08:59:58.873Z,1017.28
2016-12-08T09:01:09.215Z,1017.28
2016-12-08T09:02:18.607Z,1017.24
2016-12-08T09:03:28.962Z,1017.21
2016-12-08T09:04:38.998Z,1017.22
2016-12-08T09:05:49.026Z,1017.26
2016-12-08T09:06:59.084Z,1017.28
2016-12-08T09:08:09.415Z,1017.32
2016-12-08T09:09:19.728Z,1017.31
2016-12-08T09:10:29.758Z,1017.24
2016-12-08T09:11:39.793Z,1017.25
2016-12-08T09:12:49.525Z,1017.27
2016-12-08T09:13:59.864Z,1017.27
2016-12-08T09:15:09.905Z,1017.25
2016-12-08T09:16:19.947Z,1017.21
2016-12-08T09:17:29.963Z,1017.22
2016-12-08T09:18:39.671Z,1017.19
2016-12-08T09:19:50.021Z,1017.25
2016-12-08T09:21:00.353Z,1017.26
2016-12-08T09:22:10.685Z,1017.24
2016-12-08T09:23:20.698Z,1017.24
2016-12-08T09:24:30.703Z,1017.2
2016-12-08T09:25:40.729Z,1017.17
2016-12-08T09:26:50.777Z,1017.14
2016-12-08T09:28:01.093Z,1017.11
2016-12-08T09:29:11.425Z,1017.12
2016-12-08T09:30:20.827Z,1017.12
2016-12-08T09:31:30.837Z,1017.13
2016-12-08T09:32:40.860Z,1017.11
2016-12-08T09:33:50.874Z,1017.07
2016-12-08T09:35:01.213Z,1017.08
2016-12-08T09:36:10.306Z,1017.09
2016-12-08T09:37:20.333Z,1017.11
2016-12-08T09:38:30.661Z,1017.14
2016-12-08T09:39:40.991Z,1017.13
2016-12-08T09:40:50.688Z,1017.1
2016-12-08T09:42:00.703Z,1017.12
2016-12-08T09:43:10.725Z,1017.24
2016-12-08T09:44:20.748Z,1017.24
2016-12-08T09:45:30.755Z,1017.2
2016-12-08T09:46:41.088Z,1017.17
2016-12-08T09:47:51.426Z,1017.17
2016-12-08T09:49:01.439Z,1017.12
2016-12-08T09:50:11.476Z,1017.09
2016-12-08T09:51:21.218Z,1017.09
2016-12-08T09:52:30.919Z,1017.04
2016-12-08T09:53:40.328Z,1017.07
2016-12-08T09:54:50.344Z,1017.05
2016-12-08T09:56:00.070Z,1017.02
2016-12-08T09:57:10.411Z,1017.01
2016-12-08T09:58:20.418Z,1016.99
2016-12-08T09:59:30.761Z,1016.98
2016-12-08T10:00:40.790Z,1016.96
2016-12-08T10:01:51.138Z,1016.93
2016-12-08T10:03:01.159Z,1016.9
2016-12-08T10:04:10.868Z,1016.93
2016-12-08T10:05:20.608Z,1016.9
2016-12-08T10:06:30.670Z,1016.89
2016-12-08T10:07:41.014Z,1016.93
2016-12-08T10:08:51.043Z,1016.88
2016-12-08T10:10:01.380Z,1016.86
2016-12-08T10:11:11.738Z,1016.85
2016-12-08T10:12:22.097Z,1016.84
2016-12-08T10:13:32.135Z,1016.79
2016-12-08T10:14:42.177Z,1016.74
2016-12-08T10:15:52.509Z,1016.74
2016-12-08T10:17:02.840Z,1016.77
2016-12-08T10:18:13.169Z,1016.75
2016-12-08T10:19:23.189Z,1016.77
2016-12-08T10:20:33.526Z,1016.73
2016-12-08T10:21:43.233Z,1016.74
2016-12-08T10:22:53.588Z,1016.72
2016-12-08T10:24:03.921Z,1016.7
2016-12-08T10:25:14.250Z,1016.72
2016-12-08T10:26:24.594Z,1016.7
2016-12-08T10:27:34.935Z,1016.73
2016-12-08T10:28:44.989Z,1016.7
2016-12-08T10:29:55.005Z,1016.75
2016-12-08T10:31:05.021Z,1016.76
2016-12-08T10:32:15.344Z,1016.76
2016-12-08T10:33:25.731Z,1016.75
2016-12-08T10:34:36.071Z,1016.71
2016-12-08T10:35:46.444Z,1016.61
2016-12-08T10:36:56.176Z,1016.58
2016-12-08T10:38:06.517Z,1016.47
2016-12-08T10:39:16.529Z,1016.39
2016-12-08T10:40:26.232Z,1016.37
2016-12-08T10:41:36.241Z,1016.37
2016-12-08T10:42:45.942Z,1016.38
2016-12-08T10:43:56.255Z,1016.43
2016-12-08T10:45:05.962Z,1016.35
2016-12-08T10:46:15.683Z,1016.34
2016-12-08T10:47:26.027Z,1016.28
2016-12-08T10:48:36.368Z,1016.26
2016-12-08T10:49:46.698Z,1016.28
2016-12-08T10:50:57.025Z,1016.3
2016-12-08T10:52:07.347Z,1016.37
2016-12-08T10:53:17.365Z,1016.39
2016-12-08T10:54:27.692Z,1016.41
2016-12-08T10:55:37.741Z,1016.4
2016-12-08T10:56:48.075Z,1016.35
2016-12-08T10:57:58.410Z,1016.33
2016-12-08T10:59:08.752Z,1016.31
2016-12-08T11:00:18.488Z,1016.21
2016-12-08T11:01:28.815Z,1016.19
2016-12-08T11:02:39.145Z,1016.19
2016-12-08T11:03:49.487Z,1016.11
2016-12-08T11:04:59.190Z,1016.14
2016-12-08T11:06:09.519Z,1016.19
2016-12-08T11:07:19.855Z,1016.13
2016-12-08T11:08:30.293Z,1016.16
2016-12-08T11:09:43.754Z,1016.14
2016-12-08T11:10:58.118Z,1016.2
2016-12-08T11:12:12.001Z,1016.18
2016-12-08T11:13:22.427Z,1016.17
2016-12-08T11:14:31.884Z,1016.11
2016-12-08T11:15:42.048Z,1016.12
2016-12-08T11:16:52.439Z,1016.14
2016-12-08T11:18:02.762Z,1016.17
2016-12-08T11:25:34.262Z,1016.16
2016-12-08T11:26:44.316Z,1016.09
2016-12-08T11:27:54.352Z,1016
2016-12-08T11:29:04.700Z,1015.94
2016-12-08T11:30:14.731Z,1015.91
2016-12-08T11:31:24.763Z,1015.89
2016-12-08T11:32:34.789Z,1015.77
2016-12-08T11:33:45.151Z,1015.77
2016-12-08T11:34:55.479Z,1015.73
2016-12-08T11:36:05.194Z,1015.72
2016-12-08T11:37:15.240Z,1015.78
2016-12-08T11:38:24.640Z,1015.75
2016-12-08T11:39:34.988Z,1015.75
2016-12-08T11:40:44.720Z,1015.73
2016-12-08T11:41:55.088Z,1015.65
2016-12-08T11:43:04.782Z,1015.69
2016-12-08T11:44:15.144Z,1015.64
2016-12-08T11:45:25.163Z,1015.6
2016-12-08T11:46:35.764Z,1015.61
2016-12-08T11:47:46.105Z,1015.6
2016-12-08T11:48:55.827Z,1015.63
2016-12-08T11:50:05.865Z,1015.6
2016-12-08T11:51:15.909Z,1015.65
2016-12-08T11:52:26.254Z,1015.67
2016-12-08T11:53:36.010Z,1015.6
2016-12-08T11:54:46.379Z,1015.6
2016-12-08T11:55:56.411Z,1015.57
2016-12-08T11:57:06.835Z,1015.66
2016-12-08T11:58:17.178Z,1015.64
2016-12-08T11:59:27.268Z,1015.62
2016-12-08T12:00:37.294Z,1015.6
2016-12-08T12:01:47.670Z,1015.57
2016-12-08T12:02:57.999Z,1015.6
2016-12-08T12:04:08.033Z,1015.6
2016-12-08T12:05:18.390Z,1015.61
2016-12-08T12:06:28.752Z,1015.68
2016-12-08T12:07:39.138Z,1015.73
2016-12-08T12:08:49.488Z,1015.69
2016-12-08T12:09:59.527Z,1015.67
2016-12-08T12:11:09.283Z,1015.67
2016-12-08T12:12:19.013Z,1015.71
2016-12-08T12:13:29.060Z,1015.7
2016-12-08T12:14:39.395Z,1015.72
2016-12-08T12:15:48.841Z,1015.74
2016-12-08T12:16:58.862Z,1015.74
2016-12-08T12:18:08.899Z,1015.79
2016-12-08T12:19:18.981Z,1015.79
2016-12-08T12:20:29.333Z,1015.73
2016-12-08T12:21:39.688Z,1015.72
2016-12-08T12:22:50.296Z,1015.67
2016-12-08T12:24:00.648Z,1015.63
2016-12-08T12:25:11.033Z,1015.59
2016-12-08T12:26:21.407Z,1015.61
2016-12-08T12:27:31.786Z,1015.62
2016-12-08T12:28:41.488Z,1015.67
2016-12-08T12:29:51.844Z,1015.6
2016-12-08T12:31:02.191Z,1015.65
2016-12-08T12:32:12.218Z,1015.58
2016-12-08T12:33:22.253Z,1015.58
2016-12-08T12:34:32.273Z,1015.59
2016-12-08T12:35:42.600Z,1015.59
2016-12-08T12:36:52.919Z,1015.57
2016-12-08T12:38:02.631Z,1015.55
2016-12-08T12:39:12.648Z,1015.53
2016-12-08T12:40:22.678Z,1015.53
2016-12-08T12:41:32.391Z,1015.49
2016-12-08T12:42:41.828Z,1015.51
2016-12-08T12:43:51.842Z,1015.58
2016-12-08T12:45:02.191Z,1015.54
2016-12-08T12:46:12.533Z,1015.49
2016-12-08T12:47:22.257Z,1015.5
2016-12-08T12:48:32.586Z,1015.36
2016-12-08T12:49:42.924Z,1015.33
2016-12-08T12:50:52.949Z,1015.31
2016-12-08T12:52:03.000Z,1015.27
2016-12-08T12:53:13.349Z,1015.22
2016-12-08T12:54:23.431Z,1015.19
2016-12-08T12:55:33.453Z,1015.16
2016-12-08T12:56:43.474Z,1015.18
2016-12-08T12:57:53.494Z,1015.2
2016-12-08T12:59:03.512Z,1015.24
2016-12-08T13:00:13.754Z,1015.25
2016-12-08T13:01:24.145Z,1015.28
2016-12-08T13:02:34.153Z,1015.31
2016-12-08T13:03:44.178Z,1015.28
2016-12-08T13:04:54.517Z,1015.22
2016-12-08T13:06:04.848Z,1015.19
2016-12-08T13:07:15.183Z,1015.22
2016-12-08T13:08:25.542Z,1015.2
2016-12-08T13:09:35.565Z,1015.17
2016-12-08T13:10:45.279Z,1015.1
2016-12-08T13:11:54.993Z,1015.09
2016-12-08T13:13:05.026Z,1015.04
2016-12-08T13:14:15.045Z,1015.04
2016-12-08T13:15:25.070Z,1015.01
2016-12-08T13:16:35.096Z,1015
2016-12-08T13:17:45.434Z,1015.01
2016-12-08T13:18:55.144Z,1014.94
2016-12-08T13:20:05.488Z,1014.96
2016-12-08T13:21:15.804Z,1015.02
2016-12-08T13:22:25.206Z,1015.08
2016-12-08T13:23:34.920Z,1015.01
2016-12-08T13:24:44.995Z,1015
2016-12-08T13:25:55.017Z,1014.98
2016-12-08T13:27:05.348Z,1015.01
2016-12-08T13:28:15.685Z,1015.05
2016-12-08T13:29:26.013Z,1014.91
2016-12-08T13:30:36.357Z,1014.96
2016-12-08T13:31:45.773Z,1014.93
2016-12-08T13:32:55.802Z,1014.95
2016-12-08T13:34:05.831Z,1014.92
2016-12-08T13:35:15.844Z,1014.9
2016-12-08T13:36:26.215Z,1014.86
2016-12-08T13:37:36.241Z,1014.88
2016-12-08T13:38:46.262Z,1014.79
2016-12-08T13:39:55.966Z,1014.77
2016-12-08T13:41:06.305Z,1014.76
2016-12-08T13:42:16.311Z,1014.73
2016-12-08T13:43:26.012Z,1014.75
2016-12-08T13:44:36.037Z,1014.79
2016-12-08T13:45:46.366Z,1014.7
2016-12-08T13:46:56.422Z,1014.76
2016-12-08T13:48:06.137Z,1014.75
2016-12-08T13:49:16.154Z,1014.74
2016-12-08T13:50:26.529Z,1014.74
2016-12-08T13:51:36.873Z,1014.76
2016-12-08T13:52:46.916Z,1014.76
2016-12-08T13:53:57.241Z,1014.74
2016-12-08T13:55:07.582Z,1014.76
2016-12-08T13:56:17.595Z,1014.77
2016-12-08T13:57:27.613Z,1014.71
2016-12-08T13:58:37.038Z,1014.71
2016-12-08T13:59:47.364Z,1014.7
2016-12-08T14:00:57.687Z,1014.65
2016-12-08T14:02:08.023Z,1014.55
2016-12-08T14:03:18.044Z,1014.59
2016-12-08T14:04:28.056Z,1014.56
2016-12-08T14:05:37.772Z,1014.55
2016-12-08T14:06:47.795Z,1014.49
2016-12-08T14:07:58.109Z,1014.5
2016-12-08T14:09:07.829Z,1014.56
2016-12-08T14:10:18.141Z,1014.55
2016-12-08T14:11:28.162Z,1014.54
2016-12-08T14:12:38.505Z,1014.56
2016-12-08T14:13:47.905Z,1014.56
2016-12-08T14:14:57.302Z,1014.55
2016-12-08T14:16:07.644Z,1014.63
2016-12-08T14:17:17.699Z,1014.59
2016-12-08T14:18:28.040Z,1014.55
2016-12-08T14:19:38.368Z,1014.57
2016-12-08T14:20:48.386Z,1014.6
2016-12-08T14:21:58.088Z,1014.61
2016-12-08T14:23:07.489Z,1014.63
2016-12-08T14:24:17.511Z,1014.68
2016-12-08T14:25:27.524Z,1014.69
2016-12-08T14:26:37.588Z,1014.76
2016-12-08T14:27:47.930Z,1014.79
2016-12-08T14:28:58.262Z,1014.83
2016-12-08T14:30:08.280Z,1014.85
2016-12-08T14:31:17.971Z,1014.81
2016-12-08T14:32:27.990Z,1014.79
2016-12-08T14:33:38.018Z,1014.81
2016-12-08T14:34:47.728Z,1014.81
2016-12-08T14:35:58.053Z,1014.78
2016-12-08T14:37:08.122Z,1014.77
2016-12-08T14:38:18.150Z,1014.79
2016-12-08T14:39:27.904Z,1014.7
2016-12-08T14:40:38.246Z,1014.66
2016-12-08T14:41:48.268Z,1014.62
2016-12-08T14:42:57.975Z,1014.59
2016-12-08T14:44:08.310Z,1014.54
2016-12-08T14:45:18.012Z,1014.53
2016-12-08T14:46:28.385Z,1014.57
2016-12-08T14:47:38.410Z,1014.55
2016-12-08T14:48:48.741Z,1014.51